createdAt,value
2023-01-09T00:03:03.392Z,97228.38
2023-01-09T00:08:13.525Z,97225.78
2023-01-09T00:13:26.125Z,97211.69
2023-01-09T00:18:30.531Z,97207.69
2023-01-09T00:23:38.246Z,97207.72
2023-01-09T00:29:00.650Z,97202.25
2023-01-09T00:34:10.627Z,97200.47
2023-01-09T00:39:33.026Z,97195.66
2023-01-09T00:44:52.087Z,97188.88
2023-01-09T00:50:00.543Z,97183.25
2023-01-09T00:55:17.280Z,97186.13
2023-01-09T01:00:31.226Z,97199.53
2023-01-09T01:06:08.061Z,97186.47
2023-01-09T01:11:24.486Z,97199.53
2023-01-09T01:16:37.163Z,97177.59
2023-01-09T01:21:41.808Z,97176.13
2023-01-09T01:26:54.685Z,97172.13
2023-01-09T01:32:06.396Z,97167.28
2023-01-09T01:37:11.164Z,97167.75
2023-01-09T01:42:24.268Z,97160.66
2023-01-09T01:47:37.985Z,97145.00
2023-01-09T01:52:47.531Z,97145.16
2023-01-09T01:57:59.946Z,97136.75
2023-01-09T02:03:13.729Z,97142.25
2023-01-09T02:08:19.411Z,97120.94
2023-01-09T02:13:36.262Z,97130.47
2023-01-09T02:19:01.591Z,97125.44
2023-01-09T02:24:44.988Z,97122.06
2023-01-09T02:30:38.017Z,97122.41
2023-01-09T02:36:05.963Z,97134.31
2023-01-09T02:41:31.201Z,97125.09
2023-01-09T02:46:46.101Z,97121.06
2023-01-09T02:51:59.603Z,97115.41
2023-01-09T02:57:28.836Z,97104.78
2023-01-09T03:02:57.789Z,97105.75
2023-01-09T03:08:12.751Z,97101.84
2023-01-09T03:13:26.959Z,97085.59
2023-01-09T03:18:43.211Z,97078.66
2023-01-09T03:23:59.635Z,97081.06
2023-01-09T03:29:07.202Z,97079.97
2023-01-09T03:34:15.869Z,97076.56
2023-01-09T03:39:23.557Z,97069.47
2023-01-09T03:44:37.127Z,97052.84
2023-01-09T03:49:45.947Z,97059.81
2023-01-09T03:54:56.262Z,97041.91
2023-01-09T04:00:00.857Z,97051.59
2023-01-09T04:05:12.572Z,97047.22
2023-01-09T04:10:23.120Z,97043.84
2023-01-09T04:15:27.769Z,97029.97
2023-01-09T04:20:36.503Z,97033.03
2023-01-09T04:25:52.809Z,97028.03
2023-01-09T04:31:08.893Z,97019.66
2023-01-09T04:36:20.916Z,97019.00
2023-01-09T04:41:45.461Z,97010.47
2023-01-09T04:46:59.558Z,97007.25
2023-01-09T04:52:16.794Z,97005.31
2023-01-09T04:57:44.469Z,96994.50
2023-01-09T05:02:55.054Z,96999.66
2023-01-09T05:08:00.653Z,96988.53
2023-01-09T05:13:09.074Z,96985.63
2023-01-09T05:18:19.484Z,96987.25
2023-01-09T05:23:49.475Z,96979.38
2023-01-09T05:29:01.056Z,96985.31
2023-01-09T05:34:14.275Z,96973.22
2023-01-09T05:39:40.476Z,96970.16
2023-01-09T05:44:47.389Z,96970.81
2023-01-09T05:49:51.816Z,96955.84
2023-01-09T05:55:03.566Z,96948.44
2023-01-09T06:00:12.999Z,96930.22
2023-01-09T06:05:26.810Z,96919.41
2023-01-09T06:10:47.368Z,96920.69
2023-01-09T06:16:00.439Z,96916.97
2023-01-09T06:21:11.300Z,96920.38
2023-01-09T06:26:31.758Z,96915.34
2023-01-09T06:31:36.337Z,96917.28
2023-01-09T06:36:41.017Z,96914.19
2023-01-09T06:41:48.508Z,96907.41
2023-01-09T06:46:59.140Z,96907.53
2023-01-09T06:52:05.820Z,96916.53
2023-01-09T06:57:17.170Z,96907.59
2023-01-09T07:02:25.130Z,96905.00
2023-01-09T07:07:35.220Z,96904.44
2023-01-09T07:12:44.010Z,96916.53
2023-01-09T07:17:49.816Z,96912.75
2023-01-09T07:23:03.162Z,96916.59
2023-01-09T07:28:11.969Z,96919.66
2023-01-09T07:33:17.112Z,96914.63
2023-01-09T07:38:27.930Z,96910.00
2023-01-09T07:43:46.069Z,96918.19
2023-01-09T07:48:50.692Z,96919.09
2023-01-09T07:54:07.298Z,96916.81
2023-01-09T07:59:19.338Z,96906.22
2023-01-09T08:04:24.457Z,96908.47
2023-01-09T08:09:29.006Z,96898.06
2023-01-09T08:14:39.199Z,96897.38
2023-01-09T08:19:52.339Z,96896.13
2023-01-09T08:24:59.689Z,96895.72
2023-01-09T08:30:16.862Z,96891.44
2023-01-09T08:35:25.395Z,96891.91
2023-01-09T08:40:41.513Z,96897.19
2023-01-09T08:46:16.934Z,96882.09
2023-01-09T08:51:21.183Z,96884.28
2023-01-09T08:56:28.379Z,96878.38
2023-01-09T09:01:51.743Z,96881.13
2023-01-09T09:07:02.517Z,96881.84
2023-01-09T09:12:08.090Z,96877.13
2023-01-09T09:17:13.876Z,96866.47
2023-01-09T09:22:31.751Z,96865.94
2023-01-09T09:27:42.258Z,96864.84
2023-01-09T09:32:53.885Z,96859.94
2023-01-09T09:38:04.025Z,96851.16
2023-01-09T09:43:59.966Z,96840.25
2023-01-09T09:49:16.080Z,96841.13
2023-01-09T09:54:34.037Z,96826.97
2023-01-09T09:59:41.678Z,96834.03
2023-01-09T10:05:04.160Z,96835.50
2023-01-09T10:10:17.123Z,96840.56
2023-01-09T10:15:43.425Z,96834.63
2023-01-09T10:20:58.617Z,96832.03
2023-01-09T10:26:15.612Z,96821.28
2023-01-09T10:31:35.768Z,96822.91
2023-01-09T10:37:08.575Z,96816.97
2023-01-09T10:42:34.890Z,96819.25
2023-01-09T10:47:40.866Z,96820.09
2023-01-09T10:52:58.279Z,96813.56
2023-01-09T10:58:14.730Z,96804.41
2023-01-09T11:03:30.327Z,96805.25
2023-01-09T11:08:53.617Z,96811.88
2023-01-09T11:14:20.593Z,96798.97
2023-01-09T11:19:39.476Z,96804.38
2023-01-09T11:25:06.606Z,96801.22
2023-01-09T11:30:27.113Z,96795.28
2023-01-09T11:35:37.303Z,96793.31
2023-01-09T11:40:50.914Z,96793.53
2023-01-09T11:46:04.352Z,96795.59
2023-01-09T11:51:29.105Z,96800.84
2023-01-09T11:56:41.173Z,96802.47
2023-01-09T12:02:24.631Z,96792.50
2023-01-09T12:08:33.036Z,96795.25
2023-01-09T12:14:33.402Z,96782.47
2023-01-09T12:20:13.017Z,96781.28
2023-01-09T12:25:36.020Z,96776.53
2023-01-09T12:30:58.829Z,96772.91
2023-01-09T12:36:21.094Z,96769.34
2023-01-09T12:42:11.030Z,96763.59
2023-01-09T12:47:46.386Z,96764.94
2023-01-09T12:53:15.603Z,96774.59
2023-01-09T12:58:37.180Z,96782.41
2023-01-09T13:03:56.414Z,96774.56
2023-01-09T13:09:27.965Z,96773.94
2023-01-09T13:14:59.144Z,96768.56
2023-01-09T13:20:22.620Z,96752.19
2023-01-09T13:25:46.031Z,96754.41
2023-01-09T13:31:36.239Z,96760.59
2023-01-09T13:36:49.725Z,96767.53
2023-01-09T13:42:19.477Z,96782.41
2023-01-09T13:47:28.106Z,96799.78
2023-01-09T13:52:39.577Z,96815.75
2023-01-09T13:57:49.659Z,96823.13
2023-01-09T14:03:14.557Z,96834.09
2023-01-09T14:08:22.613Z,96845.06
2023-01-09T14:13:34.181Z,96857.47
2023-01-09T14:18:54.561Z,96842.25
2023-01-09T14:24:07.572Z,96840.06
2023-01-09T14:29:51.010Z,96856.47
2023-01-09T14:35:04.702Z,96865.03
2023-01-09T14:40:24.364Z,96884.38
2023-01-09T14:45:32.654Z,96887.19
2023-01-09T14:50:56.036Z,96882.56
2023-01-09T14:56:31.444Z,96898.31
2023-01-09T15:01:41.865Z,96904.25
2023-01-09T15:06:52.429Z,96911.19
2023-01-09T15:12:10.331Z,96918.19
2023-01-09T15:17:27.448Z,96919.38
2023-01-09T15:22:37.248Z,96926.16
2023-01-09T15:27:50.274Z,96924.13
2023-01-09T15:33:01.463Z,96929.72
2023-01-09T15:38:17.506Z,96959.81
2023-01-09T15:43:26.732Z,96964.44
2023-01-09T15:48:38.299Z,96958.03
2023-01-09T15:53:51.366Z,96962.16
2023-01-09T15:58:57.975Z,96964.09
2023-01-09T16:04:12.655Z,96988.19
2023-01-09T16:09:25.534Z,96997.41
2023-01-09T16:14:44.619Z,96993.38
2023-01-09T16:19:57.943Z,96996.97
2023-01-09T16:25:29.934Z,96999.75
2023-01-09T16:30:35.788Z,97006.09
2023-01-09T16:35:45.754Z,97017.13
2023-01-09T16:41:24.021Z,97019.34
2023-01-09T16:46:41.605Z,97031.09
2023-01-09T16:51:55.269Z,97039.25
2023-01-09T16:57:02.126Z,97032.50
2023-01-09T17:02:27.391Z,97053.19
2023-01-09T17:07:35.071Z,97058.22
2023-01-09T17:12:45.157Z,97059.22
2023-01-09T17:17:51.654Z,97058.59
2023-01-09T17:22:56.031Z,97054.59
2023-01-09T17:28:22.105Z,97058.09
2023-01-09T17:33:28.894Z,97070.28
2023-01-09T17:38:33.348Z,97085.56
2023-01-09T17:43:37.836Z,97085.56
2023-01-09T17:48:43.657Z,97103.72
2023-01-09T17:53:51.409Z,97113.09
